sensor_id;sensor_type;location;lat;lon;timestamp;temperature;humidity
56729;DHT22;42612;52.232;7.560;2022-08-21T00:01:22;22.80;49.80
56729;DHT22;42612;52.232;7.560;2022-08-21T00:04:09;22.80;49.70
56729;DHT22;42612;52.232;7.560;2022-08-21T00:06:56;22.80;49.90
56729;DHT22;42612;52.232;7.560;2022-08-21T00:09:42;22.80;49.90
56729;DHT22;42612;52.232;7.560;2022-08-21T00:12:28;22.70;49.90
56729;DHT22;42612;52.232;7.560;2022-08-21T00:15:16;22.70;50.00
56729;DHT22;42612;52.232;7.560;2022-08-21T00:18:05;22.70;50.00
56729;DHT22;42612;52.232;7.560;2022-08-21T00:20:53;22.60;50.00
56729;DHT22;42612;52.232;7.560;2022-08-21T00:23:39;22.70;50.20
56729;DHT22;42612;52.232;7.560;2022-08-21T00:26:25;22.60;50.00
56729;DHT22;42612;52.232;7.560;2022-08-21T00:29:11;22.60;50.10
56729;DHT22;42612;52.232;7.560;2022-08-21T00:31:58;22.60;50.10
56729;DHT22;42612;52.232;7.560;2022-08-21T00:34:45;22.60;50.10
56729;DHT22;42612;52.232;7.560;2022-08-21T00:37:33;22.60;50.10
56729;DHT22;42612;52.232;7.560;2022-08-21T00:40:25;22.60;50.80
56729;DHT22;42612;52.232;7.560;2022-08-21T00:43:15;22.60;50.30
56729;DHT22;42612;52.232;7.560;2022-08-21T00:46:03;22.50;50.20
56729;DHT22;42612;52.232;7.560;2022-08-21T00:48:49;22.50;50.20
56729;DHT22;42612;52.232;7.560;2022-08-21T00:51:41;22.50;50.30
56729;DHT22;42612;52.232;7.560;2022-08-21T00:54:29;22.50;50.40
56729;DHT22;42612;52.232;7.560;2022-08-21T00:57:19;22.40;50.30
56729;DHT22;42612;52.232;7.560;2022-08-21T01:00:08;22.40;50.40
56729;DHT22;42612;52.232;7.560;2022-08-21T01:02:57;22.40;50.20
56729;DHT22;42612;52.232;7.560;2022-08-21T01:05:45;22.40;50.20
56729;DHT22;42612;52.232;7.560;2022-08-21T01:08:32;22.40;50.10
56729;DHT22;42612;52.232;7.560;2022-08-21T01:11:18;22.30;50.30
56729;DHT22;42612;52.232;7.560;2022-08-21T01:14:04;22.30;50.40
56729;DHT22;42612;52.232;7.560;2022-08-21T01:16:51;22.30;50.60
56729;DHT22;42612;52.232;7.560;2022-08-21T01:19:37;22.20;50.60
56729;DHT22;42612;52.232;7.560;2022-08-21T01:22:23;22.20;50.80
56729;DHT22;42612;52.232;7.560;2022-08-21T01:25:10;22.20;50.80
56729;DHT22;42612;52.232;7.560;2022-08-21T01:27:58;22.20;50.90
56729;DHT22;42612;52.232;7.560;2022-08-21T01:30:48;22.20;50.80
56729;DHT22;42612;52.232;7.560;2022-08-21T01:33:36;22.20;50.80
56729;DHT22;42612;52.232;7.560;2022-08-21T01:36:22;22.20;50.80
56729;DHT22;42612;52.232;7.560;2022-08-21T01:39:08;22.10;50.70
56729;DHT22;42612;52.232;7.560;2022-08-21T01:41:54;22.10;50.70
56729;DHT22;42612;52.232;7.560;2022-08-21T01:44:40;22.10;50.80
56729;DHT22;42612;52.232;7.560;2022-08-21T01:47:26;22.10;50.80
56729;DHT22;42612;52.232;7.560;2022-08-21T01:50:14;22.00;50.70
56729;DHT22;42612;52.232;7.560;2022-08-21T01:53:03;22.00;50.80
56729;DHT22;42612;52.232;7.560;2022-08-21T01:55:49;22.00;50.90
56729;DHT22;42612;52.232;7.560;2022-08-21T01:58:35;21.90;50.60
56729;DHT22;42612;52.232;7.560;2022-08-21T02:01:21;21.90;50.80
56729;DHT22;42612;52.232;7.560;2022-08-21T02:04:08;21.90;50.80
56729;DHT22;42612;52.232;7.560;2022-08-21T02:06:55;21.90;50.70
56729;DHT22;42612;52.232;7.560;2022-08-21T02:09:41;21.80;50.70
56729;DHT22;42612;52.232;7.560;2022-08-21T02:12:30;21.80;50.90
56729;DHT22;42612;52.232;7.560;2022-08-21T02:15:16;21.80;51.00
56729;DHT22;42612;52.232;7.560;2022-08-21T02:18:04;21.70;51.00
56729;DHT22;42612;52.232;7.560;2022-08-21T02:20:51;21.70;51.10
56729;DHT22;42612;52.232;7.560;2022-08-21T02:23:37;21.70;51.00
56729;DHT22;42612;52.232;7.560;2022-08-21T02:26:23;21.70;51.10
56729;DHT22;42612;52.232;7.560;2022-08-21T02:29:09;21.70;51.10
56729;DHT22;42612;52.232;7.560;2022-08-21T02:31:55;21.70;50.90
56729;DHT22;42612;52.232;7.560;2022-08-21T02:34:41;21.60;50.80
56729;DHT22;42612;52.232;7.560;2022-08-21T02:37:27;21.60;50.90
56729;DHT22;42612;52.232;7.560;2022-08-21T02:40:14;21.60;51.00
56729;DHT22;42612;52.232;7.560;2022-08-21T02:43:01;21.60;51.10
56729;DHT22;42612;52.232;7.560;2022-08-21T02:45:48;21.50;51.00
56729;DHT22;42612;52.232;7.560;2022-08-21T02:48:35;21.50;51.30
56729;DHT22;42612;52.232;7.560;2022-08-21T02:51:22;21.50;50.90
56729;DHT22;42612;52.232;7.560;2022-08-21T02:54:08;21.50;50.80
56729;DHT22;42612;52.232;7.560;2022-08-21T02:56:54;21.40;50.90
56729;DHT22;42612;52.232;7.560;2022-08-21T02:59:40;21.40;51.00
56729;DHT22;42612;52.232;7.560;2022-08-21T03:02:26;21.40;50.90
56729;DHT22;42612;52.232;7.560;2022-08-21T03:05:12;21.40;50.90
56729;DHT22;42612;52.232;7.560;2022-08-21T03:08:01;21.30;51.00
56729;DHT22;42612;52.232;7.560;2022-08-21T03:10:51;21.30;51.00
56729;DHT22;42612;52.232;7.560;2022-08-21T03:13:38;21.20;51.00
56729;DHT22;42612;52.232;7.560;2022-08-21T03:16:24;21.20;51.10
56729;DHT22;42612;52.232;7.560;2022-08-21T03:19:10;21.20;50.90
56729;DHT22;42612;52.232;7.560;2022-08-21T03:21:56;21.20;50.90
56729;DHT22;42612;52.232;7.560;2022-08-21T03:24:42;21.10;50.70
56729;DHT22;42612;52.232;7.560;2022-08-21T03:27:28;21.10;50.70
56729;DHT22;42612;52.232;7.560;2022-08-21T03:30:14;21.00;50.70
56729;DHT22;42612;52.232;7.560;2022-08-21T03:33:02;21.10;50.90
56729;DHT22;42612;52.232;7.560;2022-08-21T03:35:50;21.00;51.00
56729;DHT22;42612;52.232;7.560;2022-08-21T03:38:41;21.00;50.90
56729;DHT22;42612;52.232;7.560;2022-08-21T03:41:27;21.00;51.00
56729;DHT22;42612;52.232;7.560;2022-08-21T03:44:13;20.90;51.00
56729;DHT22;42612;52.232;7.560;2022-08-21T03:46:59;20.90;51.10
56729;DHT22;42612;52.232;7.560;2022-08-21T03:49:45;20.80;51.10
56729;DHT22;42612;52.232;7.560;2022-08-21T03:52:31;20.80;51.20
56729;DHT22;42612;52.232;7.560;2022-08-21T03:55:17;20.80;51.20
56729;DHT22;42612;52.232;7.560;2022-08-21T03:58:03;20.80;51.30
56729;DHT22;42612;52.232;7.560;2022-08-21T04:00:50;20.80;51.20
56729;DHT22;42612;52.232;7.560;2022-08-21T04:03:37;20.80;51.30
56729;DHT22;42612;52.232;7.560;2022-08-21T04:06:24;20.70;51.20
56729;DHT22;42612;52.232;7.560;2022-08-21T04:09:11;20.70;51.20
56729;DHT22;42612;52.232;7.560;2022-08-21T04:11:58;20.70;51.30
56729;DHT22;42612;52.232;7.560;2022-08-21T04:14:44;20.60;51.20
56729;DHT22;42612;52.232;7.560;2022-08-21T04:17:30;20.60;51.00
56729;DHT22;42612;52.232;7.560;2022-08-21T04:20:16;20.60;51.00
56729;DHT22;42612;52.232;7.560;2022-08-21T04:23:03;20.60;51.00
56729;DHT22;42612;52.232;7.560;2022-08-21T04:25:49;20.50;51.10
56729;DHT22;42612;52.232;7.560;2022-08-21T04:28:35;20.50;51.90
56729;DHT22;42612;52.232;7.560;2022-08-21T04:31:21;20.50;51.20
56729;DHT22;42612;52.232;7.560;2022-08-21T04:34:07;20.50;51.30
56729;DHT22;42612;52.232;7.560;2022-08-21T04:36:53;20.50;51.40
56729;DHT22;42612;52.232;7.560;2022-08-21T04:39:39;20.50;51.30
56729;DHT22;42612;52.232;7.560;2022-08-21T04:42:25;20.40;51.30
56729;DHT22;42612;52.232;7.560;2022-08-21T04:45:16;20.40;51.20
56729;DHT22;42612;52.232;7.560;2022-08-21T04:48:08;20.40;51.30
56729;DHT22;42612;52.232;7.560;2022-08-21T04:51:03;20.40;51.40
56729;DHT22;42612;52.232;7.560;2022-08-21T04:54:02;20.40;51.40
56729;DHT22;42612;52.232;7.560;2022-08-21T04:56:59;20.40;51.40
56729;DHT22;42612;52.232;7.560;2022-08-21T04:59:51;20.40;51.40
56729;DHT22;42612;52.232;7.560;2022-08-21T05:02:37;20.40;51.40
56729;DHT22;42612;52.232;7.560;2022-08-21T05:05:23;20.40;51.50
56729;DHT22;42612;52.232;7.560;2022-08-21T05:08:11;20.40;51.50
56729;DHT22;42612;52.232;7.560;2022-08-21T05:10:58;20.30;51.40
56729;DHT22;42612;52.232;7.560;2022-08-21T05:13:44;20.30;51.40
56729;DHT22;42612;52.232;7.560;2022-08-21T05:16:30;20.30;51.50
56729;DHT22;42612;52.232;7.560;2022-08-21T05:19:16;20.30;51.50
56729;DHT22;42612;52.232;7.560;2022-08-21T05:22:02;20.30;51.50
56729;DHT22;42612;52.232;7.560;2022-08-21T05:24:48;20.30;51.60
56729;DHT22;42612;52.232;7.560;2022-08-21T05:27:34;20.30;51.80
56729;DHT22;42612;52.232;7.560;2022-08-21T05:30:20;20.30;51.90
56729;DHT22;42612;52.232;7.560;2022-08-21T05:33:06;20.30;51.90
56729;DHT22;42612;52.232;7.560;2022-08-21T05:35:53;20.30;52.20
56729;DHT22;42612;52.232;7.560;2022-08-21T05:38:43;20.30;52.30
56729;DHT22;42612;52.232;7.560;2022-08-21T05:41:29;20.30;52.30
56729;DHT22;42612;52.232;7.560;2022-08-21T05:44:15;20.40;52.40
56729;DHT22;42612;52.232;7.560;2022-08-21T05:47:05;20.40;52.60
56729;DHT22;42612;52.232;7.560;2022-08-21T05:49:52;20.50;52.60
56729;DHT22;42612;52.232;7.560;2022-08-21T05:52:38;20.50;52.60
56729;DHT22;42612;52.232;7.560;2022-08-21T05:55:24;20.50;52.80
56729;DHT22;42612;52.232;7.560;2022-08-21T05:58:10;20.60;52.90
56729;DHT22;42612;52.232;7.560;2022-08-21T06:00:57;20.60;52.90
56729;DHT22;42612;52.232;7.560;2022-08-21T06:03:44;20.70;52.90
56729;DHT22;42612;52.232;7.560;2022-08-21T06:06:30;20.70;53.00
56729;DHT22;42612;52.232;7.560;2022-08-21T06:09:16;20.70;52.80
56729;DHT22;42612;52.232;7.560;2022-08-21T06:12:03;20.80;52.90
56729;DHT22;42612;52.232;7.560;2022-08-21T06:14:50;20.80;53.00
56729;DHT22;42612;52.232;7.560;2022-08-21T06:17:37;20.90;53.10
56729;DHT22;42612;52.232;7.560;2022-08-21T06:20:23;20.90;53.10
56729;DHT22;42612;52.232;7.560;2022-08-21T06:23:09;21.00;53.30
56729;DHT22;42612;52.232;7.560;2022-08-21T06:25:55;21.00;53.20
56729;DHT22;42612;52.232;7.560;2022-08-21T06:28:42;21.00;53.30
56729;DHT22;42612;52.232;7.560;2022-08-21T06:31:28;21.10;53.30
56729;DHT22;42612;52.232;7.560;2022-08-21T06:34:14;21.10;53.40
56729;DHT22;42612;52.232;7.560;2022-08-21T06:37:01;21.20;53.30
56729;DHT22;42612;52.232;7.560;2022-08-21T06:39:47;21.30;53.60
56729;DHT22;42612;52.232;7.560;2022-08-21T06:42:32;21.30;53.50
56729;DHT22;42612;52.232;7.560;2022-08-21T06:45:19;21.40;53.60
56729;DHT22;42612;52.232;7.560;2022-08-21T06:48:05;21.40;53.70
56729;DHT22;42612;52.232;7.560;2022-08-21T06:50:52;21.50;53.60
56729;DHT22;42612;52.232;7.560;2022-08-21T06:53:38;21.60;53.60
56729;DHT22;42612;52.232;7.560;2022-08-21T06:56:24;21.60;53.50
56729;DHT22;42612;52.232;7.560;2022-08-21T06:59:10;21.70;53.50
56729;DHT22;42612;52.232;7.560;2022-08-21T07:01:56;21.70;53.50
56729;DHT22;42612;52.232;7.560;2022-08-21T07:04:42;21.80;53.60
56729;DHT22;42612;52.232;7.560;2022-08-21T07:07:28;21.90;53.60
56729;DHT22;42612;52.232;7.560;2022-08-21T07:10:14;22.00;53.60
56729;DHT22;42612;52.232;7.560;2022-08-21T07:13:00;22.10;53.50
56729;DHT22;42612;52.232;7.560;2022-08-21T07:15:46;22.10;53.50
56729;DHT22;42612;52.232;7.560;2022-08-21T07:18:32;22.20;53.40
56729;DHT22;42612;52.232;7.560;2022-08-21T07:21:18;22.20;53.30
56729;DHT22;42612;52.232;7.560;2022-08-21T07:24:04;22.30;53.40
56729;DHT22;42612;52.232;7.560;2022-08-21T07:26:50;22.40;53.30
56729;DHT22;42612;52.232;7.560;2022-08-21T07:29:36;22.40;53.20
56729;DHT22;42612;52.232;7.560;2022-08-21T07:32:22;22.50;53.20
56729;DHT22;42612;52.232;7.560;2022-08-21T07:35:09;22.60;53.10
56729;DHT22;42612;52.232;7.560;2022-08-21T07:37:55;22.70;53.00
56729;DHT22;42612;52.232;7.560;2022-08-21T07:40:41;22.70;52.80
56729;DHT22;42612;52.232;7.560;2022-08-21T07:43:27;22.80;52.50
56729;DHT22;42612;52.232;7.560;2022-08-21T07:46:14;22.80;52.50
56729;DHT22;42612;52.232;7.560;2022-08-21T07:49:00;22.90;52.20
56729;DHT22;42612;52.232;7.560;2022-08-21T07:51:46;23.00;52.20
56729;DHT22;42612;52.232;7.560;2022-08-21T07:54:32;23.00;52.10
56729;DHT22;42612;52.232;7.560;2022-08-21T07:57:18;23.10;52.20
56729;DHT22;42612;52.232;7.560;2022-08-21T08:00:05;23.20;51.90
56729;DHT22;42612;52.232;7.560;2022-08-21T08:02:52;23.30;51.70
56729;DHT22;42612;52.232;7.560;2022-08-21T08:05:39;23.30;51.50
56729;DHT22;42612;52.232;7.560;2022-08-21T08:08:25;23.30;51.00
56729;DHT22;42612;52.232;7.560;2022-08-21T08:11:11;23.40;50.40
56729;DHT22;42612;52.232;7.560;2022-08-21T08:14:00;23.40;50.70
56729;DHT22;42612;52.232;7.560;2022-08-21T08:16:49;23.50;50.90
56729;DHT22;42612;52.232;7.560;2022-08-21T08:19:35;23.50;50.70
56729;DHT22;42612;52.232;7.560;2022-08-21T08:22:21;23.60;49.90
56729;DHT22;42612;52.232;7.560;2022-08-21T08:25:09;23.60;49.80
56729;DHT22;42612;52.232;7.560;2022-08-21T08:27:56;23.60;50.20
56729;DHT22;42612;52.232;7.560;2022-08-21T08:30:42;23.70;50.30
56729;DHT22;42612;52.232;7.560;2022-08-21T08:33:29;23.80;50.00
56729;DHT22;42612;52.232;7.560;2022-08-21T08:36:16;23.80;49.70
56729;DHT22;42612;52.232;7.560;2022-08-21T08:39:03;23.80;50.40
56729;DHT22;42612;52.232;7.560;2022-08-21T08:41:50;23.90;50.60
56729;DHT22;42612;52.232;7.560;2022-08-21T08:44:42;23.90;50.10
56729;DHT22;42612;52.232;7.560;2022-08-21T08:47:30;24.00;49.90
56729;DHT22;42612;52.232;7.560;2022-08-21T08:50:18;24.00;49.70
56729;DHT22;42612;52.232;7.560;2022-08-21T08:53:10;24.10;49.80
56729;DHT22;42612;52.232;7.560;2022-08-21T08:55:58;24.10;50.60
56729;DHT22;42612;52.232;7.560;2022-08-21T08:58:46;24.20;50.00
56729;DHT22;42612;52.232;7.560;2022-08-21T09:01:33;24.30;50.20
56729;DHT22;42612;52.232;7.560;2022-08-21T09:04:21;24.30;49.90
56729;DHT22;42612;52.232;7.560;2022-08-21T09:10:20;24.50;50.00
56729;DHT22;42612;52.232;7.560;2022-08-21T09:13:18;24.60;49.20
56729;DHT22;42612;52.232;7.560;2022-08-21T09:16:31;24.60;49.70
56729;DHT22;42612;52.232;7.560;2022-08-21T09:25:28;24.80;49.50
56729;DHT22;42612;52.232;7.560;2022-08-21T09:28:17;24.80;49.70
56729;DHT22;42612;52.232;7.560;2022-08-21T09:31:05;24.90;50.00
56729;DHT22;42612;52.232;7.560;2022-08-21T09:33:59;24.90;49.90
56729;DHT22;42612;52.232;7.560;2022-08-21T09:36:47;24.90;48.90
56729;DHT22;42612;52.232;7.560;2022-08-21T09:39:39;24.90;49.10
56729;DHT22;42612;52.232;7.560;2022-08-21T09:42:27;24.90;47.20
56729;DHT22;42612;52.232;7.560;2022-08-21T09:45:17;24.90;49.20
56729;DHT22;42612;52.232;7.560;2022-08-21T09:51:09;25.00;47.70
56729;DHT22;42612;52.232;7.560;2022-08-21T09:54:10;25.10;48.50
56729;DHT22;42612;52.232;7.560;2022-08-21T09:57:01;25.20;49.60
56729;DHT22;42612;52.232;7.560;2022-08-21T10:00:25;25.20;49.20
56729;DHT22;42612;52.232;7.560;2022-08-21T10:03:17;25.30;49.50
56729;DHT22;42612;52.232;7.560;2022-08-21T10:06:07;25.40;49.30
56729;DHT22;42612;52.232;7.560;2022-08-21T10:09:09;25.50;49.00
56729;DHT22;42612;52.232;7.560;2022-08-21T10:12:05;25.50;48.50
56729;DHT22;42612;52.232;7.560;2022-08-21T10:18:36;25.70;48.50
56729;DHT22;42612;52.232;7.560;2022-08-21T10:25:02;25.90;48.30
56729;DHT22;42612;52.232;7.560;2022-08-21T10:28:37;25.90;48.40
56729;DHT22;42612;52.232;7.560;2022-08-21T10:31:16;26.00;47.30
56729;DHT22;42612;52.232;7.560;2022-08-21T10:37:31;25.90;48.50
56729;DHT22;42612;52.232;7.560;2022-08-21T10:40:31;25.90;45.90
56729;DHT22;42612;52.232;7.560;2022-08-21T10:43:25;26.00;47.80
56729;DHT22;42612;52.232;7.560;2022-08-21T10:46:23;26.00;46.80
56729;DHT22;42612;52.232;7.560;2022-08-21T10:49:31;26.10;45.30
56729;DHT22;42612;52.232;7.560;2022-08-21T10:58:30;26.20;46.60
56729;DHT22;42612;52.232;7.560;2022-08-21T11:01:26;26.20;47.70
56729;DHT22;42612;52.232;7.560;2022-08-21T11:04:24;26.30;47.50
56729;DHT22;42612;52.232;7.560;2022-08-21T11:13:15;26.40;46.60
56729;DHT22;42612;52.232;7.560;2022-08-21T11:19:19;26.60;47.60
56729;DHT22;42612;52.232;7.560;2022-08-21T11:24:59;26.70;47.60
56729;DHT22;42612;52.232;7.560;2022-08-21T11:27:54;26.80;47.60
56729;DHT22;42612;52.232;7.560;2022-08-21T11:30:55;26.90;46.90
56729;DHT22;42612;52.232;7.560;2022-08-21T11:34:33;27.00;46.50
56729;DHT22;42612;52.232;7.560;2022-08-21T11:37:16;27.00;46.70
56729;DHT22;42612;52.232;7.560;2022-08-21T11:46:28;27.20;46.90
56729;DHT22;42612;52.232;7.560;2022-08-21T11:55:26;27.40;46.60
56729;DHT22;42612;52.232;7.560;2022-08-21T11:58:25;27.50;46.20
56729;DHT22;42612;52.232;7.560;2022-08-21T12:01:22;27.60;46.50
56729;DHT22;42612;52.232;7.560;2022-08-21T12:04:18;27.70;46.00
56729;DHT22;42612;52.232;7.560;2022-08-21T12:07:12;27.70;45.50
56729;DHT22;42612;52.232;7.560;2022-08-21T12:10:16;27.70;45.90
56729;DHT22;42612;52.232;7.560;2022-08-21T12:13:28;27.80;45.50
56729;DHT22;42612;52.232;7.560;2022-08-21T12:16:24;27.80;46.30
56729;DHT22;42612;52.232;7.560;2022-08-21T12:24:51;28.10;46.30
56729;DHT22;42612;52.232;7.560;2022-08-21T12:27:52;28.10;44.90
56729;DHT22;42612;52.232;7.560;2022-08-21T12:30:40;28.10;45.10
56729;DHT22;42612;52.232;7.560;2022-08-21T12:33:35;28.10;44.70
56729;DHT22;42612;52.232;7.560;2022-08-21T12:36:39;28.00;44.40
56729;DHT22;42612;52.232;7.560;2022-08-21T12:39:30;28.10;44.60
56729;DHT22;42612;52.232;7.560;2022-08-21T12:42:34;28.10;44.80
56729;DHT22;42612;52.232;7.560;2022-08-21T12:45:31;28.10;44.60
56729;DHT22;42612;52.232;7.560;2022-08-21T12:48:31;28.10;44.60
56729;DHT22;42612;52.232;7.560;2022-08-21T12:51:23;28.10;44.40
56729;DHT22;42612;52.232;7.560;2022-08-21T12:54:21;28.10;44.10
56729;DHT22;42612;52.232;7.560;2022-08-21T12:57:25;28.10;43.50
56729;DHT22;42612;52.232;7.560;2022-08-21T13:00:13;28.10;43.60
56729;DHT22;42612;52.232;7.560;2022-08-21T13:03:00;28.00;43.90
56729;DHT22;42612;52.232;7.560;2022-08-21T13:05:45;28.00;44.00
56729;DHT22;42612;52.232;7.560;2022-08-21T13:08:32;28.10;44.60
56729;DHT22;42612;52.232;7.560;2022-08-21T13:11:19;28.10;44.60
56729;DHT22;42612;52.232;7.560;2022-08-21T13:14:06;28.20;44.60
56729;DHT22;42612;52.232;7.560;2022-08-21T13:17:03;28.20;44.20
56729;DHT22;42612;52.232;7.560;2022-08-21T13:22:43;28.40;44.20
56729;DHT22;42612;52.232;7.560;2022-08-21T13:25:33;28.50;44.30
56729;DHT22;42612;52.232;7.560;2022-08-21T13:28:20;28.60;43.60
56729;DHT22;42612;52.232;7.560;2022-08-21T13:31:08;28.60;44.10
56729;DHT22;42612;52.232;7.560;2022-08-21T13:33:55;28.70;44.00
56729;DHT22;42612;52.232;7.560;2022-08-21T13:36:41;28.70;43.60
56729;DHT22;42612;52.232;7.560;2022-08-21T13:39:28;28.80;43.60
56729;DHT22;42612;52.232;7.560;2022-08-21T13:42:14;28.80;43.70
56729;DHT22;42612;52.232;7.560;2022-08-21T13:45:00;28.90;43.50
56729;DHT22;42612;52.232;7.560;2022-08-21T13:47:46;28.90;43.90
56729;DHT22;42612;52.232;7.560;2022-08-21T13:50:33;28.90;43.40
56729;DHT22;42612;52.232;7.560;2022-08-21T13:53:23;28.80;43.30
56729;DHT22;42612;52.232;7.560;2022-08-21T13:56:25;28.80;43.40
56729;DHT22;42612;52.232;7.560;2022-08-21T13:59:26;28.80;43.10
56729;DHT22;42612;52.232;7.560;2022-08-21T14:02:20;28.80;43.10
56729;DHT22;42612;52.232;7.560;2022-08-21T14:05:10;28.70;43.00
56729;DHT22;42612;52.232;7.560;2022-08-21T14:08:03;28.70;43.00
56729;DHT22;42612;52.232;7.560;2022-08-21T14:10:53;28.70;43.20
56729;DHT22;42612;52.232;7.560;2022-08-21T14:13:41;28.70;43.30
56729;DHT22;42612;52.232;7.560;2022-08-21T14:16:29;28.80;43.60
56729;DHT22;42612;52.232;7.560;2022-08-21T14:19:38;28.80;43.50
56729;DHT22;42612;52.232;7.560;2022-08-21T14:22:37;28.90;43.30
56729;DHT22;42612;52.232;7.560;2022-08-21T14:25:29;29.00;43.50
56729;DHT22;42612;52.232;7.560;2022-08-21T14:28:29;29.10;43.40
56729;DHT22;42612;52.232;7.560;2022-08-21T14:31:19;29.20;43.20
56729;DHT22;42612;52.232;7.560;2022-08-21T14:34:06;29.30;43.30
56729;DHT22;42612;52.232;7.560;2022-08-21T14:36:52;29.20;42.70
56729;DHT22;42612;52.232;7.560;2022-08-21T14:39:40;29.30;43.10
56729;DHT22;42612;52.232;7.560;2022-08-21T14:42:26;29.30;43.00
56729;DHT22;42612;52.232;7.560;2022-08-21T14:48:03;29.40;43.00
56729;DHT22;42612;52.232;7.560;2022-08-21T14:50:49;29.50;42.90
56729;DHT22;42612;52.232;7.560;2022-08-21T14:53:36;29.60;43.00
56729;DHT22;42612;52.232;7.560;2022-08-21T14:56:22;29.70;43.00
56729;DHT22;42612;52.232;7.560;2022-08-21T14:59:08;29.70;42.60
56729;DHT22;42612;52.232;7.560;2022-08-21T15:01:55;29.80;42.60
56729;DHT22;42612;52.232;7.560;2022-08-21T15:04:41;29.90;42.60
56729;DHT22;42612;52.232;7.560;2022-08-21T15:07:28;29.90;42.30
56729;DHT22;42612;52.232;7.560;2022-08-21T15:10:14;29.90;42.20
56729;DHT22;42612;52.232;7.560;2022-08-21T15:13:00;29.90;42.30
56729;DHT22;42612;52.232;7.560;2022-08-21T15:15:47;29.90;42.00
56729;DHT22;42612;52.232;7.560;2022-08-21T15:18:34;29.90;41.50
56729;DHT22;42612;52.232;7.560;2022-08-21T15:21:20;29.80;41.60
56729;DHT22;42612;52.232;7.560;2022-08-21T15:24:06;29.80;41.70
56729;DHT22;42612;52.232;7.560;2022-08-21T15:26:52;29.80;41.70
56729;DHT22;42612;52.232;7.560;2022-08-21T15:29:39;29.70;41.70
56729;DHT22;42612;52.232;7.560;2022-08-21T15:32:27;29.70;41.40
56729;DHT22;42612;52.232;7.560;2022-08-21T15:35:14;29.60;41.20
56729;DHT22;42612;52.232;7.560;2022-08-21T15:38:00;29.60;41.60
56729;DHT22;42612;52.232;7.560;2022-08-21T15:40:46;29.60;41.90
56729;DHT22;42612;52.232;7.560;2022-08-21T15:43:54;29.70;41.80
56729;DHT22;42612;52.232;7.560;2022-08-21T15:46:39;29.70;41.80
56729;DHT22;42612;52.232;7.560;2022-08-21T15:49:25;29.70;41.30
56729;DHT22;42612;52.232;7.560;2022-08-21T15:52:12;29.70;41.50
56729;DHT22;42612;52.232;7.560;2022-08-21T15:54:58;29.70;41.40
56729;DHT22;42612;52.232;7.560;2022-08-21T15:57:45;29.70;41.50
56729;DHT22;42612;52.232;7.560;2022-08-21T16:00:34;29.70;41.50
56729;DHT22;42612;52.232;7.560;2022-08-21T16:03:21;29.70;41.40
56729;DHT22;42612;52.232;7.560;2022-08-21T16:06:07;29.60;41.70
56729;DHT22;42612;52.232;7.560;2022-08-21T16:08:53;29.70;41.60
56729;DHT22;42612;52.232;7.560;2022-08-21T16:11:39;29.60;41.40
56729;DHT22;42612;52.232;7.560;2022-08-21T16:14:25;29.60;41.30
56729;DHT22;42612;52.232;7.560;2022-08-21T16:17:11;29.60;41.20
56729;DHT22;42612;52.232;7.560;2022-08-21T16:19:57;29.60;41.10
56729;DHT22;42612;52.232;7.560;2022-08-21T16:22:43;29.70;41.60
56729;DHT22;42612;52.232;7.560;2022-08-21T16:25:30;29.80;41.40
56729;DHT22;42612;52.232;7.560;2022-08-21T16:28:16;29.80;41.30
56729;DHT22;42612;52.232;7.560;2022-08-21T16:31:03;29.80;41.60
56729;DHT22;42612;52.232;7.560;2022-08-21T16:33:50;29.80;42.20
56729;DHT22;42612;52.232;7.560;2022-08-21T16:36:38;29.90;41.30
56729;DHT22;42612;52.232;7.560;2022-08-21T16:39:24;29.90;42.00
56729;DHT22;42612;52.232;7.560;2022-08-21T16:42:11;30.00;42.00
56729;DHT22;42612;52.232;7.560;2022-08-21T16:45:02;30.00;41.00
56729;DHT22;42612;52.232;7.560;2022-08-21T16:47:51;30.00;40.20
56729;DHT22;42612;52.232;7.560;2022-08-21T16:50:37;30.00;40.60
56729;DHT22;42612;52.232;7.560;2022-08-21T16:53:23;30.00;41.20
56729;DHT22;42612;52.232;7.560;2022-08-21T16:56:10;30.00;41.00
56729;DHT22;42612;52.232;7.560;2022-08-21T16:58:57;30.00;41.40
56729;DHT22;42612;52.232;7.560;2022-08-21T17:01:43;29.90;41.20
56729;DHT22;42612;52.232;7.560;2022-08-21T17:04:29;29.80;40.30
56729;DHT22;42612;52.232;7.560;2022-08-21T17:07:15;29.80;40.70
56729;DHT22;42612;52.232;7.560;2022-08-21T17:10:02;29.70;40.80
56729;DHT22;42612;52.232;7.560;2022-08-21T17:12:55;29.70;40.60
56729;DHT22;42612;52.232;7.560;2022-08-21T17:15:42;29.60;40.70
56729;DHT22;42612;52.232;7.560;2022-08-21T17:18:28;29.60;40.50
56729;DHT22;42612;52.232;7.560;2022-08-21T17:21:14;29.50;40.50
56729;DHT22;42612;52.232;7.560;2022-08-21T17:24:00;29.40;40.60
56729;DHT22;42612;52.232;7.560;2022-08-21T17:26:47;29.40;40.70
56729;DHT22;42612;52.232;7.560;2022-08-21T17:29:34;29.30;40.30
56729;DHT22;42612;52.232;7.560;2022-08-21T17:32:22;29.30;40.50
56729;DHT22;42612;52.232;7.560;2022-08-21T17:35:08;29.20;40.50
56729;DHT22;42612;52.232;7.560;2022-08-21T17:37:55;29.10;40.50
56729;DHT22;42612;52.232;7.560;2022-08-21T17:40:41;29.10;40.60
56729;DHT22;42612;52.232;7.560;2022-08-21T17:43:27;29.10;40.60
56729;DHT22;42612;52.232;7.560;2022-08-21T17:46:16;29.00;40.60
56729;DHT22;42612;52.232;7.560;2022-08-21T17:49:04;29.00;40.60
56729;DHT22;42612;52.232;7.560;2022-08-21T17:51:50;28.90;40.40
56729;DHT22;42612;52.232;7.560;2022-08-21T17:54:36;28.90;40.50
56729;DHT22;42612;52.232;7.560;2022-08-21T17:57:22;28.80;40.50
56729;DHT22;42612;52.232;7.560;2022-08-21T18:00:13;28.80;40.40
56729;DHT22;42612;52.232;7.560;2022-08-21T18:03:04;28.80;40.50
56729;DHT22;42612;52.232;7.560;2022-08-21T18:05:53;28.70;40.60
56729;DHT22;42612;52.232;7.560;2022-08-21T18:08:41;28.70;40.70
56729;DHT22;42612;52.232;7.560;2022-08-21T18:11:28;28.60;40.80
56729;DHT22;42612;52.232;7.560;2022-08-21T18:14:14;28.60;40.90
56729;DHT22;42612;52.232;7.560;2022-08-21T18:17:01;28.60;40.90
56729;DHT22;42612;52.232;7.560;2022-08-21T18:19:47;28.60;41.00
56729;DHT22;42612;52.232;7.560;2022-08-21T18:22:33;28.50;41.10
56729;DHT22;42612;52.232;7.560;2022-08-21T18:25:19;28.50;41.10
56729;DHT22;42612;52.232;7.560;2022-08-21T18:28:05;28.40;41.00
56729;DHT22;42612;52.232;7.560;2022-08-21T18:30:52;28.40;41.10
56729;DHT22;42612;52.232;7.560;2022-08-21T18:33:38;28.40;41.20
56729;DHT22;42612;52.232;7.560;2022-08-21T18:36:25;28.30;41.20
56729;DHT22;42612;52.232;7.560;2022-08-21T18:39:12;28.30;41.30
56729;DHT22;42612;52.232;7.560;2022-08-21T18:41:58;28.30;41.40
56729;DHT22;42612;52.232;7.560;2022-08-21T18:44:46;28.20;41.50
56729;DHT22;42612;52.232;7.560;2022-08-21T18:47:35;28.20;41.50
56729;DHT22;42612;52.232;7.560;2022-08-21T18:50:26;28.00;41.40